sensor_id;sensor_type;location;lat;lon;timestamp;P1;durP1;ratioP1;P2;durP2;ratioP2
16735;SDS011;17990;49.548;9.730;2023-11-22T00:01:50;2.83;;;1.83;;
16735;SDS011;17990;49.548;9.730;2023-11-22T00:04:16;3.53;;;2.27;;
16735;SDS011;17990;49.548;9.730;2023-11-22T00:06:43;2.43;;;1.70;;
16735;SDS011;17990;49.548;9.730;2023-11-22T00:09:11;3.70;;;1.97;;
16735;SDS011;17990;49.548;9.730;2023-11-22T00:11:39;2.63;;;2.00;;
16735;SDS011;17990;49.548;9.730;2023-11-22T00:14:06;2.00;;;1.67;;
16735;SDS011;17990;49.548;9.730;2023-11-22T00:16:33;1.97;;;1.63;;
16735;SDS011;17990;49.548;9.730;2023-11-22T00:19:02;2.37;;;1.87;;
16735;SDS011;17990;49.548;9.730;2023-11-22T00:21:30;2.07;;;1.60;;
16735;SDS011;17990;49.548;9.730;2023-11-22T00:23:56;2.73;;;1.70;;
16735;SDS011;17990;49.548;9.730;2023-11-22T00:26:24;2.07;;;1.80;;
16735;SDS011;17990;49.548;9.730;2023-11-22T00:28:51;2.33;;;1.73;;
16735;SDS011;17990;49.548;9.730;2023-11-22T00:31:18;3.87;;;1.67;;
16735;SDS011;17990;49.548;9.730;2023-11-22T00:33:45;3.27;;;1.80;;
16735;SDS011;17990;49.548;9.730;2023-11-22T00:36:12;2.67;;;1.57;;
16735;SDS011;17990;49.548;9.730;2023-11-22T00:38:39;2.50;;;1.60;;
16735;SDS011;17990;49.548;9.730;2023-11-22T00:41:05;2.20;;;1.80;;
16735;SDS011;17990;49.548;9.730;2023-11-22T00:43:34;3.27;;;1.97;;
16735;SDS011;17990;49.548;9.730;2023-11-22T00:46:00;3.50;;;2.10;;
16735;SDS011;17990;49.548;9.730;2023-11-22T00:48:27;3.47;;;1.70;;
16735;SDS011;17990;49.548;9.730;2023-11-22T00:50:54;3.93;;;2.03;;
16735;SDS011;17990;49.548;9.730;2023-11-22T00:53:20;2.10;;;1.60;;
16735;SDS011;17990;49.548;9.730;2023-11-22T00:55:48;2.87;;;1.70;;
16735;SDS011;17990;49.548;9.730;2023-11-22T00:58:15;3.67;;;1.80;;
16735;SDS011;17990;49.548;9.730;2023-11-22T01:00:43;3.13;;;1.60;;
16735;SDS011;17990;49.548;9.730;2023-11-22T01:03:10;2.70;;;1.73;;
16735;SDS011;17990;49.548;9.730;2023-11-22T01:05:37;3.47;;;2.03;;
16735;SDS011;17990;49.548;9.730;2023-11-22T01:08:04;2.10;;;1.63;;
16735;SDS011;17990;49.548;9.730;2023-11-22T01:10:31;2.60;;;1.70;;
16735;SDS011;17990;49.548;9.730;2023-11-22T01:12:57;2.40;;;1.90;;
16735;SDS011;17990;49.548;9.730;2023-11-22T01:15:24;2.60;;;1.80;;
16735;SDS011;17990;49.548;9.730;2023-11-22T01:17:52;4.43;;;2.00;;
16735;SDS011;17990;49.548;9.730;2023-11-22T01:20:19;2.27;;;1.60;;
16735;SDS011;17990;49.548;9.730;2023-11-22T01:22:47;3.83;;;2.00;;
16735;SDS011;17990;49.548;9.730;2023-11-22T01:25:14;3.63;;;1.90;;
16735;SDS011;17990;49.548;9.730;2023-11-22T01:27:41;2.50;;;2.00;;
16735;SDS011;17990;49.548;9.730;2023-11-22T01:30:08;3.33;;;2.10;;
16735;SDS011;17990;49.548;9.730;2023-11-22T01:32:35;2.57;;;1.80;;
16735;SDS011;17990;49.548;9.730;2023-11-22T01:35:03;3.20;;;2.07;;
16735;SDS011;17990;49.548;9.730;2023-11-22T01:37:31;3.50;;;2.00;;
16735;SDS011;17990;49.548;9.730;2023-11-22T01:39:58;2.83;;;2.13;;
16735;SDS011;17990;49.548;9.730;2023-11-22T01:42:24;2.40;;;1.90;;
16735;SDS011;17990;49.548;9.730;2023-11-22T01:44:51;2.47;;;1.83;;
16735;SDS011;17990;49.548;9.730;2023-11-22T01:47:18;2.60;;;1.80;;
16735;SDS011;17990;49.548;9.730;2023-11-22T01:49:45;2.90;;;1.90;;
16735;SDS011;17990;49.548;9.730;2023-11-22T01:52:13;2.77;;;2.10;;
16735;SDS011;17990;49.548;9.730;2023-11-22T01:54:40;2.70;;;1.57;;
16735;SDS011;17990;49.548;9.730;2023-11-22T01:57:09;4.93;;;1.80;;
16735;SDS011;17990;49.548;9.730;2023-11-22T01:59:37;3.63;;;1.97;;
16735;SDS011;17990;49.548;9.730;2023-11-22T02:02:05;2.77;;;1.87;;
16735;SDS011;17990;49.548;9.730;2023-11-22T02:04:32;2.30;;;1.83;;
16735;SDS011;17990;49.548;9.730;2023-11-22T02:06:58;2.37;;;1.70;;
16735;SDS011;17990;49.548;9.730;2023-11-22T02:09:26;2.53;;;1.80;;
16735;SDS011;17990;49.548;9.730;2023-11-22T02:11:53;2.93;;;1.83;;
16735;SDS011;17990;49.548;9.730;2023-11-22T02:14:20;2.13;;;1.73;;
16735;SDS011;17990;49.548;9.730;2023-11-22T02:16:47;2.53;;;1.60;;
16735;SDS011;17990;49.548;9.730;2023-11-22T02:19:15;3.27;;;1.50;;
16735;SDS011;17990;49.548;9.730;2023-11-22T02:21:43;2.50;;;1.70;;
16735;SDS011;17990;49.548;9.730;2023-11-22T02:24:11;2.97;;;1.67;;
16735;SDS011;17990;49.548;9.730;2023-11-22T02:26:38;2.03;;;1.40;;
16735;SDS011;17990;49.548;9.730;2023-11-22T02:29:10;3.63;;;1.70;;
16735;SDS011;17990;49.548;9.730;2023-11-22T02:31:38;3.33;;;1.33;;
16735;SDS011;17990;49.548;9.730;2023-11-22T02:34:08;2.90;;;1.40;;
16735;SDS011;17990;49.548;9.730;2023-11-22T02:36:34;3.70;;;1.73;;
16735;SDS011;17990;49.548;9.730;2023-11-22T02:39:02;2.80;;;1.50;;
16735;SDS011;17990;49.548;9.730;2023-11-22T02:41:30;2.90;;;1.60;;
16735;SDS011;17990;49.548;9.730;2023-11-22T02:43:57;3.27;;;1.70;;
16735;SDS011;17990;49.548;9.730;2023-11-22T02:46:24;1.70;;;1.30;;
16735;SDS011;17990;49.548;9.730;2023-11-22T02:48:51;3.13;;;1.50;;
16735;SDS011;17990;49.548;9.730;2023-11-22T02:51:19;2.40;;;1.40;;
16735;SDS011;17990;49.548;9.730;2023-11-22T02:53:46;3.03;;;1.77;;
16735;SDS011;17990;49.548;9.730;2023-11-22T02:56:13;5.60;;;1.70;;
16735;SDS011;17990;49.548;9.730;2023-11-22T02:58:41;2.17;;;1.43;;
16735;SDS011;17990;49.548;9.730;2023-11-22T03:01:08;2.50;;;1.63;;
16735;SDS011;17990;49.548;9.730;2023-11-22T03:03:35;2.37;;;1.63;;
16735;SDS011;17990;49.548;9.730;2023-11-22T03:06:02;2.30;;;1.60;;
16735;SDS011;17990;49.548;9.730;2023-11-22T03:08:29;1.97;;;1.50;;
16735;SDS011;17990;49.548;9.730;2023-11-22T03:11:00;1.50;;;1.37;;
16735;SDS011;17990;49.548;9.730;2023-11-22T03:13:27;2.33;;;1.70;;
16735;SDS011;17990;49.548;9.730;2023-11-22T03:15:56;2.70;;;1.60;;
16735;SDS011;17990;49.548;9.730;2023-11-22T03:18:23;2.27;;;1.33;;
16735;SDS011;17990;49.548;9.730;2023-11-22T03:20:51;2.47;;;1.70;;
16735;SDS011;17990;49.548;9.730;2023-11-22T03:23:19;3.03;;;1.90;;
16735;SDS011;17990;49.548;9.730;2023-11-22T03:25:46;3.60;;;1.90;;
16735;SDS011;17990;49.548;9.730;2023-11-22T03:28:13;3.00;;;1.67;;
16735;SDS011;17990;49.548;9.730;2023-11-22T03:30:40;2.27;;;1.63;;
16735;SDS011;17990;49.548;9.730;2023-11-22T03:33:08;2.23;;;1.83;;
16735;SDS011;17990;49.548;9.730;2023-11-22T03:35:35;3.03;;;1.67;;
16735;SDS011;17990;49.548;9.730;2023-11-22T03:38:01;2.00;;;1.43;;
16735;SDS011;17990;49.548;9.730;2023-11-22T03:40:28;2.00;;;1.23;;
16735;SDS011;17990;49.548;9.730;2023-11-22T03:42:55;2.73;;;1.43;;
16735;SDS011;17990;49.548;9.730;2023-11-22T03:45:21;3.57;;;1.60;;
16735;SDS011;17990;49.548;9.730;2023-11-22T03:47:49;2.73;;;1.53;;
16735;SDS011;17990;49.548;9.730;2023-11-22T03:50:17;2.23;;;1.50;;
16735;SDS011;17990;49.548;9.730;2023-11-22T03:52:44;2.13;;;1.50;;
16735;SDS011;17990;49.548;9.730;2023-11-22T03:55:11;2.33;;;1.53;;
16735;SDS011;17990;49.548;9.730;2023-11-22T03:57:38;2.67;;;1.63;;
16735;SDS011;17990;49.548;9.730;2023-11-22T04:00:05;3.00;;;1.80;;
16735;SDS011;17990;49.548;9.730;2023-11-22T04:02:34;2.93;;;1.67;;
16735;SDS011;17990;49.548;9.730;2023-11-22T04:05:01;2.23;;;1.60;;
16735;SDS011;17990;49.548;9.730;2023-11-22T04:07:29;2.77;;;1.60;;
16735;SDS011;17990;49.548;9.730;2023-11-22T04:09:56;2.83;;;1.60;;
16735;SDS011;17990;49.548;9.730;2023-11-22T04:12:22;3.17;;;1.90;;
16735;SDS011;17990;49.548;9.730;2023-11-22T04:14:50;2.37;;;1.63;;
16735;SDS011;17990;49.548;9.730;2023-11-22T04:17:17;2.37;;;1.40;;
16735;SDS011;17990;49.548;9.730;2023-11-22T04:19:44;3.40;;;1.53;;
16735;SDS011;17990;49.548;9.730;2023-11-22T04:22:10;2.23;;;1.30;;
16735;SDS011;17990;49.548;9.730;2023-11-22T04:24:38;3.77;;;1.40;;
16735;SDS011;17990;49.548;9.730;2023-11-22T04:27:05;2.40;;;1.50;;
16735;SDS011;17990;49.548;9.730;2023-11-22T04:29:32;3.13;;;1.73;;
16735;SDS011;17990;49.548;9.730;2023-11-22T04:31:59;2.80;;;1.70;;
16735;SDS011;17990;49.548;9.730;2023-11-22T04:34:25;2.73;;;1.33;;
16735;SDS011;17990;49.548;9.730;2023-11-22T04:36:53;2.20;;;1.50;;
16735;SDS011;17990;49.548;9.730;2023-11-22T04:39:19;2.40;;;1.50;;
16735;SDS011;17990;49.548;9.730;2023-11-22T04:41:47;2.83;;;1.50;;
16735;SDS011;17990;49.548;9.730;2023-11-22T04:44:14;2.70;;;1.57;;
16735;SDS011;17990;49.548;9.730;2023-11-22T04:46:41;3.30;;;2.03;;
16735;SDS011;17990;49.548;9.730;2023-11-22T04:49:08;6.37;;;2.20;;
16735;SDS011;17990;49.548;9.730;2023-11-22T04:51:35;2.83;;;1.70;;
16735;SDS011;17990;49.548;9.730;2023-11-22T04:54:01;3.87;;;1.80;;
16735;SDS011;17990;49.548;9.730;2023-11-22T04:56:28;5.40;;;1.93;;
16735;SDS011;17990;49.548;9.730;2023-11-22T04:58:56;2.87;;;1.70;;
16735;SDS011;17990;49.548;9.730;2023-11-22T05:01:23;5.47;;;2.20;;
16735;SDS011;17990;49.548;9.730;2023-11-22T05:03:50;3.93;;;2.10;;
16735;SDS011;17990;49.548;9.730;2023-11-22T05:06:17;16.00;;;7.83;;
16735;SDS011;17990;49.548;9.730;2023-11-22T05:08:43;3.23;;;2.07;;
16735;SDS011;17990;49.548;9.730;2023-11-22T05:11:10;4.40;;;2.30;;
16735;SDS011;17990;49.548;9.730;2023-11-22T05:13:37;3.83;;;2.03;;
16735;SDS011;17990;49.548;9.730;2023-11-22T05:16:05;5.20;;;2.53;;
16735;SDS011;17990;49.548;9.730;2023-11-22T05:18:33;4.23;;;2.60;;
16735;SDS011;17990;49.548;9.730;2023-11-22T05:21:00;2.83;;;2.03;;
16735;SDS011;17990;49.548;9.730;2023-11-22T05:23:28;3.87;;;2.10;;
16735;SDS011;17990;49.548;9.730;2023-11-22T05:25:55;5.80;;;2.63;;
16735;SDS011;17990;49.548;9.730;2023-11-22T05:28:22;4.63;;;2.57;;
16735;SDS011;17990;49.548;9.730;2023-11-22T05:30:48;4.63;;;2.17;;
16735;SDS011;17990;49.548;9.730;2023-11-22T05:33:16;5.60;;;2.20;;
16735;SDS011;17990;49.548;9.730;2023-11-22T05:35:43;5.17;;;2.57;;
16735;SDS011;17990;49.548;9.730;2023-11-22T05:38:10;4.60;;;2.47;;
16735;SDS011;17990;49.548;9.730;2023-11-22T05:40:37;10.83;;;2.97;;
16735;SDS011;17990;49.548;9.730;2023-11-22T05:43:03;5.33;;;2.07;;
16735;SDS011;17990;49.548;9.730;2023-11-22T05:45:33;6.73;;;2.80;;
16735;SDS011;17990;49.548;9.730;2023-11-22T05:48:00;8.83;;;3.13;;
16735;SDS011;17990;49.548;9.730;2023-11-22T05:50:28;7.17;;;2.70;;
16735;SDS011;17990;49.548;9.730;2023-11-22T05:52:54;6.33;;;2.80;;
16735;SDS011;17990;49.548;9.730;2023-11-22T05:55:21;3.77;;;2.30;;
16735;SDS011;17990;49.548;9.730;2023-11-22T05:57:48;9.27;;;3.03;;
16735;SDS011;17990;49.548;9.730;2023-11-22T06:00:15;5.17;;;2.90;;
16735;SDS011;17990;49.548;9.730;2023-11-22T06:02:42;8.43;;;2.80;;
16735;SDS011;17990;49.548;9.730;2023-11-22T06:05:09;5.77;;;2.43;;
16735;SDS011;17990;49.548;9.730;2023-11-22T06:07:37;9.13;;;3.20;;
16735;SDS011;17990;49.548;9.730;2023-11-22T06:10:04;4.77;;;2.33;;
16735;SDS011;17990;49.548;9.730;2023-11-22T06:12:31;5.33;;;2.73;;
16735;SDS011;17990;49.548;9.730;2023-11-22T06:14:58;3.73;;;2.10;;
16735;SDS011;17990;49.548;9.730;2023-11-22T06:17:25;3.67;;;2.10;;
16735;SDS011;17990;49.548;9.730;2023-11-22T06:19:51;4.80;;;2.57;;
16735;SDS011;17990;49.548;9.730;2023-11-22T06:22:18;4.57;;;2.40;;
16735;SDS011;17990;49.548;9.730;2023-11-22T06:24:47;7.40;;;3.00;;
16735;SDS011;17990;49.548;9.730;2023-11-22T06:27:14;4.37;;;2.50;;
16735;SDS011;17990;49.548;9.730;2023-11-22T06:29:41;5.20;;;2.60;;
16735;SDS011;17990;49.548;9.730;2023-11-22T06:32:09;3.90;;;2.67;;
16735;SDS011;17990;49.548;9.730;2023-11-22T06:34:36;5.03;;;2.67;;
16735;SDS011;17990;49.548;9.730;2023-11-22T06:37:03;4.10;;;2.50;;
16735;SDS011;17990;49.548;9.730;2023-11-22T06:39:29;6.77;;;4.60;;
16735;SDS011;17990;49.548;9.730;2023-11-22T06:41:57;3.93;;;2.40;;
16735;SDS011;17990;49.548;9.730;2023-11-22T06:44:24;4.10;;;2.13;;
16735;SDS011;17990;49.548;9.730;2023-11-22T06:46:51;2.77;;;1.73;;
16735;SDS011;17990;49.548;9.730;2023-11-22T06:49:18;5.33;;;2.30;;
16735;SDS011;17990;49.548;9.730;2023-11-22T06:51:45;3.30;;;2.07;;
16735;SDS011;17990;49.548;9.730;2023-11-22T06:54:12;4.03;;;2.20;;
16735;SDS011;17990;49.548;9.730;2023-11-22T06:56:39;3.50;;;2.03;;
16735;SDS011;17990;49.548;9.730;2023-11-22T06:59:07;3.60;;;2.00;;
16735;SDS011;17990;49.548;9.730;2023-11-22T07:01:34;3.80;;;2.17;;
16735;SDS011;17990;49.548;9.730;2023-11-22T07:04:01;3.93;;;2.20;;
16735;SDS011;17990;49.548;9.730;2023-11-22T07:06:29;2.33;;;1.63;;
16735;SDS011;17990;49.548;9.730;2023-11-22T07:08:56;3.37;;;2.10;;
16735;SDS011;17990;49.548;9.730;2023-11-22T07:11:23;3.53;;;1.90;;
16735;SDS011;17990;49.548;9.730;2023-11-22T07:13:51;4.20;;;2.20;;
16735;SDS011;17990;49.548;9.730;2023-11-22T07:16:19;3.20;;;1.93;;
16735;SDS011;17990;49.548;9.730;2023-11-22T07:18:46;5.93;;;2.67;;
16735;SDS011;17990;49.548;9.730;2023-11-22T07:21:13;4.73;;;2.10;;
16735;SDS011;17990;49.548;9.730;2023-11-22T07:23:40;3.50;;;2.37;;
16735;SDS011;17990;49.548;9.730;2023-11-22T07:26:07;3.50;;;1.90;;
16735;SDS011;17990;49.548;9.730;2023-11-22T07:28:39;3.47;;;2.07;;
16735;SDS011;17990;49.548;9.730;2023-11-22T07:31:06;3.63;;;2.20;;
16735;SDS011;17990;49.548;9.730;2023-11-22T07:33:35;3.57;;;2.13;;
16735;SDS011;17990;49.548;9.730;2023-11-22T07:36:03;7.20;;;2.40;;
16735;SDS011;17990;49.548;9.730;2023-11-22T07:38:31;3.43;;;1.87;;
16735;SDS011;17990;49.548;9.730;2023-11-22T07:40:58;4.53;;;2.00;;
16735;SDS011;17990;49.548;9.730;2023-11-22T07:43:26;4.43;;;2.50;;
16735;SDS011;17990;49.548;9.730;2023-11-22T07:45:53;4.53;;;2.13;;
16735;SDS011;17990;49.548;9.730;2023-11-22T07:48:19;5.57;;;3.00;;
16735;SDS011;17990;49.548;9.730;2023-11-22T07:50:49;4.37;;;2.30;;
16735;SDS011;17990;49.548;9.730;2023-11-22T07:53:17;9.13;;;2.37;;
16735;SDS011;17990;49.548;9.730;2023-11-22T07:55:43;13.17;;;3.00;;
16735;SDS011;17990;49.548;9.730;2023-11-22T07:58:10;9.67;;;2.90;;
16735;SDS011;17990;49.548;9.730;2023-11-22T08:00:37;5.90;;;3.07;;
16735;SDS011;17990;49.548;9.730;2023-11-22T08:03:06;9.67;;;3.43;;
16735;SDS011;17990;49.548;9.730;2023-11-22T08:05:34;5.63;;;3.10;;
16735;SDS011;17990;49.548;9.730;2023-11-22T08:08:03;11.77;;;3.10;;
16735;SDS011;17990;49.548;9.730;2023-11-22T08:10:33;5.77;;;3.20;;
16735;SDS011;17990;49.548;9.730;2023-11-22T08:12:59;7.27;;;2.87;;
16735;SDS011;17990;49.548;9.730;2023-11-22T08:15:27;6.70;;;3.33;;
16735;SDS011;17990;49.548;9.730;2023-11-22T08:17:56;9.77;;;3.50;;
16735;SDS011;17990;49.548;9.730;2023-11-22T08:20:23;5.17;;;2.63;;
16735;SDS011;17990;49.548;9.730;2023-11-22T08:22:50;7.97;;;3.27;;
16735;SDS011;17990;49.548;9.730;2023-11-22T08:25:18;5.30;;;2.90;;
16735;SDS011;17990;49.548;9.730;2023-11-22T08:27:45;4.27;;;2.73;;
16735;SDS011;17990;49.548;9.730;2023-11-22T08:30:12;4.60;;;2.90;;
16735;SDS011;17990;49.548;9.730;2023-11-22T08:32:40;4.70;;;2.73;;
16735;SDS011;17990;49.548;9.730;2023-11-22T08:35:08;8.80;;;3.90;;
16735;SDS011;17990;49.548;9.730;2023-11-22T08:37:35;6.47;;;3.60;;
16735;SDS011;17990;49.548;9.730;2023-11-22T08:40:04;7.10;;;3.00;;
16735;SDS011;17990;49.548;9.730;2023-11-22T08:42:34;5.73;;;2.90;;
16735;SDS011;17990;49.548;9.730;2023-11-22T08:45:01;9.37;;;3.20;;
16735;SDS011;17990;49.548;9.730;2023-11-22T08:47:29;7.90;;;3.80;;
16735;SDS011;17990;49.548;9.730;2023-11-22T08:49:56;6.87;;;3.00;;
16735;SDS011;17990;49.548;9.730;2023-11-22T08:52:22;6.40;;;3.30;;
16735;SDS011;17990;49.548;9.730;2023-11-22T08:54:50;6.97;;;4.00;;
16735;SDS011;17990;49.548;9.730;2023-11-22T08:57:17;6.03;;;3.30;;
16735;SDS011;17990;49.548;9.730;2023-11-22T08:59:46;7.07;;;3.90;;
16735;SDS011;17990;49.548;9.730;2023-11-22T09:02:13;6.23;;;3.17;;
16735;SDS011;17990;49.548;9.730;2023-11-22T09:04:40;7.30;;;4.07;;
16735;SDS011;17990;49.548;9.730;2023-11-22T09:07:07;8.37;;;3.87;;
16735;SDS011;17990;49.548;9.730;2023-11-22T09:09:35;4.57;;;3.50;;
16735;SDS011;17990;49.548;9.730;2023-11-22T09:12:02;4.43;;;3.03;;
16735;SDS011;17990;49.548;9.730;2023-11-22T09:14:37;4.47;;;3.17;;
16735;SDS011;17990;49.548;9.730;2023-11-22T09:17:06;4.50;;;3.10;;
16735;SDS011;17990;49.548;9.730;2023-11-22T09:19:34;6.00;;;3.50;;
16735;SDS011;17990;49.548;9.730;2023-11-22T09:22:02;5.57;;;3.17;;
16735;SDS011;17990;49.548;9.730;2023-11-22T09:24:31;4.50;;;3.17;;
16735;SDS011;17990;49.548;9.730;2023-11-22T09:26:58;8.17;;;3.83;;
16735;SDS011;17990;49.548;9.730;2023-11-22T09:29:25;5.07;;;3.17;;
16735;SDS011;17990;49.548;9.730;2023-11-22T09:31:52;4.87;;;2.80;;
16735;SDS011;17990;49.548;9.730;2023-11-22T09:34:21;7.03;;;3.53;;
16735;SDS011;17990;49.548;9.730;2023-11-22T09:36:47;8.97;;;3.40;;
16735;SDS011;17990;49.548;9.730;2023-11-22T09:39:14;7.00;;;3.50;;
16735;SDS011;17990;49.548;9.730;2023-11-22T09:41:46;9.70;;;3.93;;
16735;SDS011;17990;49.548;9.730;2023-11-22T09:44:13;7.93;;;4.13;;
16735;SDS011;17990;49.548;9.730;2023-11-22T09:46:41;8.10;;;4.20;;
16735;SDS011;17990;49.548;9.730;2023-11-22T09:49:10;6.47;;;4.00;;
16735;SDS011;17990;49.548;9.730;2023-11-22T09:51:42;5.60;;;3.00;;
16735;SDS011;17990;49.548;9.730;2023-11-22T09:54:10;5.13;;;3.13;;
16735;SDS011;17990;49.548;9.730;2023-11-22T09:56:39;6.63;;;3.47;;
16735;SDS011;17990;49.548;9.730;2023-11-22T09:59:15;6.73;;;3.77;;
16735;SDS011;17990;49.548;9.730;2023-11-22T10:01:44;6.87;;;3.97;;
16735;SDS011;17990;49.548;9.730;2023-11-22T10:04:11;7.23;;;3.73;;
16735;SDS011;17990;49.548;9.730;2023-11-22T10:06:38;6.27;;;3.63;;
16735;SDS011;17990;49.548;9.730;2023-11-22T10:09:07;5.90;;;3.23;;
16735;SDS011;17990;49.548;9.730;2023-11-22T10:11:34;5.17;;;3.50;;
16735;SDS011;17990;49.548;9.730;2023-11-22T10:14:04;6.17;;;3.73;;
16735;SDS011;17990;49.548;9.730;2023-11-22T10:16:30;5.40;;;3.50;;
16735;SDS011;17990;49.548;9.730;2023-11-22T10:18:57;7.43;;;3.90;;
16735;SDS011;17990;49.548;9.730;2023-11-22T10:21:24;5.20;;;3.33;;
16735;SDS011;17990;49.548;9.730;2023-11-22T10:23:54;6.17;;;3.37;;
16735;SDS011;17990;49.548;9.730;2023-11-22T10:26:22;5.73;;;3.20;;
16735;SDS011;17990;49.548;9.730;2023-11-22T10:28:50;5.37;;;3.27;;
16735;SDS011;17990;49.548;9.730;2023-11-22T10:31:18;4.63;;;2.93;;
16735;SDS011;17990;49.548;9.730;2023-11-22T10:33:46;5.37;;;3.20;;
16735;SDS011;17990;49.548;9.730;2023-11-22T10:36:14;5.77;;;3.47;;
16735;SDS011;17990;49.548;9.730;2023-11-22T10:38:45;6.80;;;3.27;;
16735;SDS011;17990;49.548;9.730;2023-11-22T10:41:12;5.27;;;3.10;;
16735;SDS011;17990;49.548;9.730;2023-11-22T10:43:40;4.90;;;3.50;;
16735;SDS011;17990;49.548;9.730;2023-11-22T10:46:08;6.50;;;3.80;;
16735;SDS011;17990;49.548;9.730;2023-11-22T10:48:35;6.27;;;3.60;;
16735;SDS011;17990;49.548;9.730;2023-11-22T10:51:02;4.53;;;3.40;;
16735;SDS011;17990;49.548;9.730;2023-11-22T10:53:31;4.27;;;2.90;;
16735;SDS011;17990;49.548;9.730;2023-11-22T10:56:04;5.10;;;3.37;;
16735;SDS011;17990;49.548;9.730;2023-11-22T10:58:36;6.03;;;3.60;;
16735;SDS011;17990;49.548;9.730;2023-11-22T11:01:15;5.03;;;3.23;;
16735;SDS011;17990;49.548;9.730;2023-11-22T11:03:44;4.40;;;2.90;;
16735;SDS011;17990;49.548;9.730;2023-11-22T11:06:24;5.47;;;3.57;;
16735;SDS011;17990;49.548;9.730;2023-11-22T11:08:56;9.57;;;4.30;;
16735;SDS011;17990;49.548;9.730;2023-11-22T11:11:26;8.37;;;3.57;;
16735;SDS011;17990;49.548;9.730;2023-11-22T11:13:55;11.00;;;3.90;;
16735;SDS011;17990;49.548;9.730;2023-11-22T11:16:23;13.20;;;6.10;;
16735;SDS011;17990;49.548;9.730;2023-11-22T11:18:50;13.30;;;6.30;;
16735;SDS011;17990;49.548;9.730;2023-11-22T11:21:17;7.47;;;4.30;;
16735;SDS011;17990;49.548;9.730;2023-11-22T11:23:44;4.63;;;3.10;;
16735;SDS011;17990;49.548;9.730;2023-11-22T11:26:14;7.07;;;3.60;;
16735;SDS011;17990;49.548;9.730;2023-11-22T11:28:43;9.60;;;4.87;;
16735;SDS011;17990;49.548;9.730;2023-11-22T11:31:12;11.30;;;5.87;;
16735;SDS011;17990;49.548;9.730;2023-11-22T11:33:52;6.03;;;3.70;;
16735;SDS011;17990;49.548;9.730;2023-11-22T11:36:21;7.00;;;3.20;;
16735;SDS011;17990;49.548;9.730;2023-11-22T11:38:49;7.83;;;5.10;;
16735;SDS011;17990;49.548;9.730;2023-11-22T11:41:17;6.77;;;4.10;;
16735;SDS011;17990;49.548;9.730;2023-11-22T11:43:44;5.00;;;3.20;;
16735;SDS011;17990;49.548;9.730;2023-11-22T11:46:13;5.13;;;3.10;;
16735;SDS011;17990;49.548;9.730;2023-11-22T11:48:42;9.03;;;5.20;;
16735;SDS011;17990;49.548;9.730;2023-11-22T11:51:09;9.43;;;4.33;;
16735;SDS011;17990;49.548;9.730;2023-11-22T11:53:39;9.93;;;5.30;;
16735;SDS011;17990;49.548;9.730;2023-11-22T11:56:06;10.37;;;6.20;;
16735;SDS011;17990;49.548;9.730;2023-11-22T11:58:34;8.80;;;5.53;;
16735;SDS011;17990;49.548;9.730;2023-11-22T12:01:03;6.77;;;4.00;;
16735;SDS011;17990;49.548;9.730;2023-11-22T12:03:31;7.17;;;4.23;;
16735;SDS011;17990;49.548;9.730;2023-11-22T12:05:58;6.00;;;3.40;;
16735;SDS011;17990;49.548;9.730;2023-11-22T12:08:25;5.87;;;3.73;;
16735;SDS011;17990;49.548;9.730;2023-11-22T12:10:55;6.30;;;3.87;;
16735;SDS011;17990;49.548;9.730;2023-11-22T12:13:23;6.23;;;4.33;;
16735;SDS011;17990;49.548;9.730;2023-11-22T12:15:51;6.17;;;3.30;;
16735;SDS011;17990;49.548;9.730;2023-11-22T12:18:19;4.97;;;3.30;;
16735;SDS011;17990;49.548;9.730;2023-11-22T12:20:54;6.37;;;3.70;;
16735;SDS011;17990;49.548;9.730;2023-11-22T12:23:22;5.00;;;3.43;;
16735;SDS011;17990;49.548;9.730;2023-11-22T12:25:53;6.40;;;3.40;;
16735;SDS011;17990;49.548;9.730;2023-11-22T12:28:22;8.17;;;3.90;;
16735;SDS011;17990;49.548;9.730;2023-11-22T12:30:49;10.80;;;4.43;;
16735;SDS011;17990;49.548;9.730;2023-11-22T12:33:16;7.30;;;3.53;;
16735;SDS011;17990;49.548;9.730;2023-11-22T12:35:44;7.67;;;4.10;;
16735;SDS011;17990;49.548;9.730;2023-11-22T12:38:12;7.17;;;3.73;;
16735;SDS011;17990;49.548;9.730;2023-11-22T12:40:43;7.07;;;3.83;;
16735;SDS011;17990;49.548;9.730;2023-11-22T12:43:11;6.47;;;3.77;;
16735;SDS011;17990;49.548;9.730;2023-11-22T12:45:40;6.27;;;3.40;;
16735;SDS011;17990;49.548;9.730;2023-11-22T12:48:19;6.63;;;3.73;;
16735;SDS011;17990;49.548;9.730;2023-11-22T12:50:48;8.63;;;3.73;;
16735;SDS011;17990;49.548;9.730;2023-11-22T12:53:16;7.17;;;3.60;;
16735;SDS011;17990;49.548;9.730;2023-11-22T12:55:46;4.60;;;3.40;;
16735;SDS011;17990;49.548;9.730;2023-11-22T12:58:14;5.83;;;3.03;;
16735;SDS011;17990;49.548;9.730;2023-11-22T13:00:41;5.97;;;3.47;;
16735;SDS011;17990;49.548;9.730;2023-11-22T13:03:09;5.10;;;3.13;;
16735;SDS011;17990;49.548;9.730;2023-11-22T13:05:36;5.90;;;3.20;;
16735;SDS011;17990;49.548;9.730;2023-11-22T13:08:03;4.53;;;2.70;;
16735;SDS011;17990;49.548;9.730;2023-11-22T13:10:32;4.50;;;3.10;;
16735;SDS011;17990;49.548;9.730;2023-11-22T13:12:58;4.30;;;3.03;;
16735;SDS011;17990;49.548;9.730;2023-11-22T13:15:26;6.17;;;3.67;;
16735;SDS011;17990;49.548;9.730;2023-11-22T13:17:52;7.73;;;3.40;;
16735;SDS011;17990;49.548;9.730;2023-11-22T13:20:20;7.03;;;3.33;;
16735;SDS011;17990;49.548;9.730;2023-11-22T13:22:48;6.67;;;3.50;;
16735;SDS011;17990;49.548;9.730;2023-11-22T13:25:15;5.63;;;3.30;;
16735;SDS011;17990;49.548;9.730;2023-11-22T13:27:45;4.23;;;2.90;;
16735;SDS011;17990;49.548;9.730;2023-11-22T13:30:13;4.93;;;3.20;;
16735;SDS011;17990;49.548;9.730;2023-11-22T13:32:40;7.37;;;4.00;;
16735;SDS011;17990;49.548;9.730;2023-11-22T13:35:08;5.87;;;3.60;;
16735;SDS011;17990;49.548;9.730;2023-11-22T13:37:40;7.73;;;5.33;;
16735;SDS011;17990;49.548;9.730;2023-11-22T13:40:08;6.73;;;4.60;;
16735;SDS011;17990;49.548;9.730;2023-11-22T13:42:39;8.27;;;5.20;;
16735;SDS011;17990;49.548;9.730;2023-11-22T13:45:09;8.07;;;4.90;;
16735;SDS011;17990;49.548;9.730;2023-11-22T13:47:36;4.80;;;3.67;;
16735;SDS011;17990;49.548;9.730;2023-11-22T13:50:03;4.73;;;3.47;;
16735;SDS011;17990;49.548;9.730;2023-11-22T13:52:31;5.83;;;3.27;;
16735;SDS011;17990;49.548;9.730;2023-11-22T13:54:58;5.37;;;3.23;;
16735;SDS011;17990;49.548;9.730;2023-11-22T13:57:26;5.00;;;3.50;;
16735;SDS011;17990;49.548;9.730;2023-11-22T13:59:53;5.20;;;3.23;;
16735;SDS011;17990;49.548;9.730;2023-11-22T14:02:21;4.63;;;3.10;;
16735;SDS011;17990;49.548;9.730;2023-11-22T14:04:48;7.23;;;3.43;;
16735;SDS011;17990;49.548;9.730;2023-11-22T14:07:14;5.90;;;2.80;;
16735;SDS011;17990;49.548;9.730;2023-11-22T14:09:42;4.80;;;3.00;;
16735;SDS011;17990;49.548;9.730;2023-11-22T14:12:11;5.17;;;3.40;;
16735;SDS011;17990;49.548;9.730;2023-11-22T14:14:38;7.23;;;3.07;;
16735;SDS011;17990;49.548;9.730;2023-11-22T14:17:05;4.93;;;3.17;;
16735;SDS011;17990;49.548;9.730;2023-11-22T14:19:33;5.10;;;3.00;;
16735;SDS011;17990;49.548;9.730;2023-11-22T14:22:00;3.90;;;2.77;;
16735;SDS011;17990;49.548;9.730;2023-11-22T14:24:27;6.07;;;3.43;;
16735;SDS011;17990;49.548;9.730;2023-11-22T14:26:55;6.67;;;3.00;;
16735;SDS011;17990;49.548;9.730;2023-11-22T14:29:25;4.57;;;2.77;;
16735;SDS011;17990;49.548;9.730;2023-11-22T14:31:52;5.23;;;2.83;;
16735;SDS011;17990;49.548;9.730;2023-11-22T14:34:19;4.23;;;3.20;;
16735;SDS011;17990;49.548;9.730;2023-11-22T14:36:47;4.17;;;2.87;;
16735;SDS011;17990;49.548;9.730;2023-11-22T14:39:13;4.47;;;3.23;;
16735;SDS011;17990;49.548;9.730;2023-11-22T14:41:40;6.30;;;4.20;;
16735;SDS011;17990;49.548;9.730;2023-11-22T14:44:07;4.17;;;3.00;;
16735;SDS011;17990;49.548;9.730;2023-11-22T14:46:34;4.63;;;3.27;;
16735;SDS011;17990;49.548;9.730;2023-11-22T14:49:01;5.87;;;3.17;;
16735;SDS011;17990;49.548;9.730;2023-11-22T14:51:29;14.43;;;6.47;;